Time;durP1;ratioP1;P1;durP2;ratioP2;P2;SDS_P1;SDS_P2;PMS_P1;PMS_P2;Temp;Humidity;BMP_temperature;BMP_pressure;BME280_temperature;BME280_humidity;BME280_pressure;Samples;Min_cycle;Max_cycle;Signal;HPM_P1;HPM_P2
2022/04/02 00:00:56;;;;;;;5.78;2.20;;;;;;;-1.72;100.00;95776.09;5001479;28;20046;-71
2022/04/02 00:03:22;;;;;;;3.30;1.90;;;;;;;-1.50;100.00;95775.09;4999348;28;20810;-70
2022/04/02 00:05:48;;;;;;;5.45;2.40;;;;;;;-1.56;100.00;95767.16;5002705;28;20045;-71
2022/04/02 00:08:14;;;;;;;5.13;1.48;;;;;;;-1.61;100.00;95775.63;4997841;28;20361;-71
2022/04/02 00:10:39;;;;;;;4.88;2.33;;;;;;;-1.64;100.00;95768.09;4998728;28;20115;-70
2022/04/02 00:13:05;;;;;;;4.40;2.20;;;;;;;-1.70;100.00;95766.25;4999669;28;20042;-69
2022/04/02 00:15:31;;;;;;;4.43;2.20;;;;;;;-1.61;100.00;95769.56;4998503;28;20034;-71
2022/04/02 00:17:56;;;;;;;6.20;2.00;;;;;;;-1.55;100.00;95764.38;5000653;28;20128;-71
2022/04/02 00:20:22;;;;;;;3.97;1.80;;;;;;;-1.48;100.00;95761.78;5001623;28;20393;-69
2022/04/02 00:25:32;;;;;;;5.05;2.25;;;;;;;-1.00;100.00;95769.81;5003531;28;20042;-71
2022/04/02 00:27:57;;;;;;;3.45;1.80;;;;;;;-1.10;100.00;95782.44;5000231;28;20061;-69
2022/04/02 00:30:24;;;;;;;4.75;2.10;;;;;;;-1.39;100.00;95778.22;4996964;28;20578;-70
2022/04/02 00:32:49;;;;;;;7.90;2.50;;;;;;;-1.23;100.00;95773.50;4984430;28;20029;-70
2022/04/02 00:35:15;;;;;;;3.17;1.90;;;;;;;-1.49;100.00;95771.47;4981749;28;20044;-71
2022/04/02 00:37:41;;;;;;;5.43;2.10;;;;;;;-1.54;100.00;95784.34;4981538;28;20513;-71
2022/04/02 00:40:07;;;;;;;4.00;2.28;;;;;;;-1.53;100.00;95780.72;4998984;28;20547;-69
2022/04/02 00:42:33;;;;;;;3.08;1.40;;;;;;;-1.61;100.00;95780.88;4985613;28;20062;-70
2022/04/02 00:44:59;;;;;;;3.05;1.25;;;;;;;-1.74;100.00;95784.16;4999193;28;20041;-71
2022/04/02 00:47:24;;;;;;;4.03;2.17;;;;;;;-1.77;100.00;95779.31;4986705;28;20042;-71
2022/04/02 00:49:54;;;;;;;3.35;2.03;;;;;;;-1.76;100.00;95774.88;4999778;28;20114;-71
2022/04/02 00:52:21;;;;;;;4.65;2.17;;;;;;;-1.69;100.00;95773.94;4983243;28;20140;-70
2022/04/02 00:54:49;;;;;;;3.78;1.90;;;;;;;-1.55;100.00;95774.06;4998804;28;20095;-70
2022/04/02 00:57:16;;;;;;;5.88;1.70;;;;;;;-1.42;100.00;95777.56;4997155;28;20042;-69
2022/04/02 00:59:41;;;;;;;5.50;2.28;;;;;;;-1.39;100.00;95775.59;4997902;28;20088;-69
2022/04/02 01:02:07;;;;;;;3.70;2.03;;;;;;;-1.25;100.00;95774.66;4998240;28;20545;-70
2022/04/02 01:04:33;;;;;;;5.80;2.40;;;;;;;-1.17;100.00;95777.97;5001906;28;20054;-70
2022/04/02 01:07:02;;;;;;;5.60;2.45;;;;;;;-1.12;100.00;95785.25;4999215;28;20712;-70
2022/04/02 01:09:28;;;;;;;3.80;2.10;;;;;;;-1.11;100.00;95789.50;4982505;28;20064;-70
2022/04/02 01:11:56;;;;;;;5.38;2.78;;;;;;;-1.05;100.00;95780.88;4998457;28;20740;-70
2022/04/02 01:14:22;;;;;;;4.43;1.92;;;;;;;-1.15;100.00;95785.66;4984507;28;20041;-70
2022/04/02 01:16:52;;;;;;;9.55;2.78;;;;;;;-1.16;100.00;95789.28;4982177;28;20042;-70
2022/04/02 01:19:23;;;;;;;;;;;;;;;-1.25;100.00;95787.78;4981750;28;20607;-70
2022/04/02 01:21:59;;;;;;;4.40;2.00;;;;;;;-1.40;100.00;95793.16;4983245;28;20038;-71
2022/04/02 01:24:44;;;;;;;4.45;2.28;;;;;;;-1.43;100.00;95789.09;4998014;28;20156;-71
2022/04/02 01:27:11;;;;;;;4.10;2.10;;;;;;;-1.21;100.00;95789.84;4982488;28;20042;-69
2022/04/02 01:29:38;;;;;;;4.53;2.38;;;;;;;-1.29;100.00;95779.50;4997329;28;20045;-70
2022/04/02 01:32:08;;;;;;;6.50;2.40;;;;;;;-1.34;100.00;95795.00;4986496;28;20037;-70
2022/04/02 01:34:34;;;;;;;3.78;2.40;;;;;;;-1.19;100.00;95800.16;4983502;28;20096;-70
2022/04/02 01:37:16;;;;;;;5.07;2.72;;;;;;;-1.21;100.00;95794.28;4999406;28;20446;-70
2022/04/02 01:39:46;;;;;;;4.03;2.03;;;;;;;-1.26;100.00;95789.59;4996954;28;20433;-69
2022/04/02 01:42:20;;;;;;;4.45;2.25;;;;;;;-1.28;100.00;95796.06;4995358;28;20576;-71
2022/04/02 01:44:53;;;;;;;4.43;2.28;;;;;;;-1.38;100.00;95798.22;4982018;28;20877;-71
2022/04/02 01:47:30;;;;;;;6.00;2.45;;;;;;;-1.48;100.00;95806.38;4997049;28;20103;-70
2022/04/02 01:50:00;;;;;;;5.32;2.28;;;;;;;-1.74;100.00;95809.59;4970422;28;20065;-70
2022/04/02 01:52:27;;;;;;;5.40;2.28;;;;;;;-1.84;100.00;95806.47;4985515;28;20038;-70
2022/04/02 01:54:54;;;;;;;6.53;2.30;;;;;;;-1.76;100.00;95817.66;4982107;28;20084;-70
2022/04/02 01:57:20;;;;;;;3.15;1.80;;;;;;;-1.68;100.00;95819.34;4983409;28;20599;-71
2022/04/02 01:59:48;;;;;;;3.55;2.20;;;;;;;-1.57;100.00;95805.72;4983490;28;20153;-70
2022/04/02 02:02:15;;;;;;;4.45;2.22;;;;;;;-1.72;100.00;95810.22;4980402;28;20171;-70
2022/04/02 02:04:41;;;;;;;3.28;2.05;;;;;;;-1.75;100.00;95815.84;4983590;28;20049;-69
2022/04/02 02:07:06;;;;;;;6.45;1.77;;;;;;;-1.73;100.00;95812.03;4998766;28;20534;-71
2022/04/02 02:09:34;;;;;;;4.00;1.98;;;;;;;-1.69;100.00;95815.09;4987080;28;20042;-70
2022/04/02 02:12:30;;;;;;;3.78;1.50;;;;;;;-1.74;100.00;95823.53;4990855;28;20046;-69
2022/04/02 02:15:03;;;;;;;2.92;1.65;;;;;;;-1.82;100.00;95833.31;4986671;28;20067;-71
2022/04/02 02:17:30;;;;;;;3.38;2.00;;;;;;;-1.90;100.00;95830.81;4987315;28;20037;-69
2022/04/02 02:19:59;;;;;;;1.83;1.02;;;;;;;-2.03;100.00;95826.25;4972908;28;20041;-70
2022/04/02 02:22:24;;;;;;;5.28;2.00;;;;;;;-2.23;100.00;95826.03;4987666;28;20037;-70
2022/04/02 02:24:50;;;;;;;19.92;7.82;;;;;;;-2.24;100.00;95824.41;5004800;28;20136;-69
2022/04/02 02:27:15;;;;;;;6.95;3.25;;;;;;;-2.26;100.00;95827.22;4988057;28;20377;-69
2022/04/02 02:29:41;;;;;;;4.50;2.50;;;;;;;-2.12;100.00;95829.97;4988147;28;20060;-70
2022/04/02 02:32:16;;;;;;;5.78;2.45;;;;;;;-2.11;100.00;95824.53;5002152;28;20132;-70
2022/04/02 02:37:27;;;;;;;7.30;2.10;;;;;;;-2.11;100.00;95828.97;5006303;28;20553;-70
2022/04/02 02:40:00;;;;;;;3.47;1.90;;;;;;;-2.19;100.00;95829.91;4987085;28;20713;-70
2022/04/02 02:42:27;;;;;;;5.88;1.90;;;;;;;-2.22;100.00;95832.91;5003722;28;20034;-70
2022/04/02 02:45:04;;;;;;;3.70;2.25;;;;;;;-2.05;100.00;95826.44;4984432;28;21244;-70
2022/04/02 02:47:31;;;;;;;3.47;1.83;;;;;;;-2.06;100.00;95826.63;5004008;28;20034;-70
2022/04/02 02:49:58;;;;;;;4.32;2.00;;;;;;;-1.92;100.00;95832.81;4985844;28;20080;-70
2022/04/02 02:52:29;;;;;;;3.95;1.98;;;;;;;-1.86;100.00;95837.34;4986312;28;20041;-71
2022/04/02 02:54:56;;;;;;;4.15;2.00;;;;;;;-1.99;100.00;95832.75;5004664;28;20484;-70
2022/04/02 02:57:21;;;;;;;4.53;2.33;;;;;;;-1.98;100.00;95829.13;4988380;28;20152;-69
2022/04/02 02:59:47;;;;;;;4.22;1.90;;;;;;;-1.75;100.00;95829.78;5002134;28;20436;-70
2022/04/02 03:02:16;;;;;;;4.78;2.05;;;;;;;-1.54;100.00;95833.41;5001496;28;20046;-71
2022/04/02 03:04:45;;;;;;;2.83;1.75;;;;;;;-1.45;100.00;95833.09;4990879;28;20046;-70
2022/04/02 03:07:18;;;;;;;7.32;2.42;;;;;;;-1.47;100.00;95835.09;4985428;28;20034;-69
2022/04/02 03:09:44;;;;;;;5.05;1.67;;;;;;;-1.62;100.00;95834.34;4983993;28;20077;-70
2022/04/02 03:12:11;;;;;;;7.15;2.50;;;;;;;-1.52;100.00;95834.03;4986933;28;20565;-70
2022/04/02 03:14:38;;;;;;;14.77;2.33;;;;;;;-1.54;100.00;95834.22;4985269;28;20489;-70
2022/04/02 03:17:05;;;;;;;3.53;1.90;;;;;;;-1.39;100.00;95835.97;4983416;28;20046;-69
2022/04/02 03:19:31;;;;;;;8.45;2.60;;;;;;;-1.30;100.00;95838.25;4988077;28;20050;-70
2022/04/02 03:21:57;;;;;;;4.63;2.30;;;;;;;-1.30;100.00;95832.19;4975011;28;20064;-69
2022/04/02 03:24:23;;;;;;;4.97;2.17;;;;;;;-1.26;100.00;95844.75;4983308;28;20041;-69
2022/04/02 03:26:48;;;;;;;4.10;2.15;;;;;;;-1.23;100.00;95840.94;4988647;28;20041;-70
2022/04/02 03:29:29;;;;;;;2.97;1.77;;;;;;;-1.60;100.00;95847.28;4987320;28;20087;-69
2022/04/02 03:31:55;;;;;;;3.03;1.42;;;;;;;-1.70;100.00;95845.78;4988378;28;20123;-70
2022/04/02 03:34:24;;;;;;;2.33;1.20;;;;;;;-1.83;100.00;95857.94;4986617;28;20061;-70
2022/04/02 03:36:55;;;;;;;2.30;1.17;;;;;;;-2.12;100.00;95864.06;5001678;28;20044;-70
2022/04/02 03:39:21;;;;;;;2.03;0.98;;;;;;;-2.20;100.00;95851.88;4981760;28;20568;-70
2022/04/02 03:41:47;;;;;;;3.78;1.48;;;;;;;-2.32;100.00;95866.44;5001932;28;20046;-69
2022/04/02 03:44:13;;;;;;;3.10;1.73;;;;;;;-2.15;100.00;95860.00;4998648;28;20042;-69
2022/04/02 03:49:33;;;;;;;4.07;1.75;;;;;;;-2.32;100.00;95862.03;4991824;28;20073;-69
2022/04/02 03:51:59;;;;;;;3.38;1.50;;;;;;;-2.11;100.00;95866.50;5001387;28;20500;-69
2022/04/02 03:54:24;;;;;;;3.05;1.65;;;;;;;-2.11;100.00;95873.53;4984791;28;20105;-69
2022/04/02 03:56:55;;;;;;;3.92;1.67;;;;;;;-2.02;100.00;95867.22;4999199;28;20042;-69
2022/04/02 03:59:20;;;;;;;3.20;1.58;;;;;;;-2.00;100.00;95873.09;4983085;28;20053;-71
2022/04/02 04:01:50;;;;;;;3.28;1.63;;;;;;;-1.91;100.00;95877.22;4982223;28;20052;-70
2022/04/02 04:04:18;;;;;;;3.75;1.70;;;;;;;-2.01;100.00;95879.34;4999780;28;20045;-69
2022/04/02 04:06:44;;;;;;;4.03;1.85;;;;;;;-2.05;100.00;95885.94;4981347;28;20040;-70
2022/04/02 04:09:11;;;;;;;2.72;1.40;;;;;;;-2.10;100.00;95888.28;4983599;28;20487;-69
2022/04/02 04:11:38;;;;;;;4.43;2.00;;;;;;;-1.98;100.00;95884.19;4999660;28;20037;-70
2022/04/02 04:14:04;;;;;;;6.00;2.20;;;;;;;-1.97;100.00;95886.63;4982995;28;20371;-69
2022/04/02 04:16:30;;;;;;;3.63;1.77;;;;;;;-2.02;100.00;95885.56;5000534;28;20073;-71
2022/04/02 04:18:56;;;;;;;3.35;1.55;;;;;;;-2.11;100.00;95890.09;4986198;28;20121;-69
2022/04/02 04:21:22;;;;;;;3.15;1.70;;;;;;;-2.33;100.00;95885.78;5001745;28;20372;-70
2022/04/02 04:23:51;;;;;;;3.38;1.45;;;;;;;-2.39;100.00;95889.94;4999157;28;20056;-70
2022/04/02 04:26:17;;;;;;;5.60;1.90;;;;;;;-2.29;100.00;95889.66;4988739;28;20100;-71
2022/04/02 04:28:43;;;;;;;4.30;1.75;;;;;;;-2.30;100.00;95894.09;4991073;28;20062;-71
2022/04/02 04:31:12;;;;;;;4.32;2.03;;;;;;;-2.22;100.00;95895.81;5000204;28;20117;-69
2022/04/02 04:33:38;;;;;;;3.67;1.80;;;;;;;-2.29;100.00;95893.09;4999733;28;20046;-69
2022/04/02 04:36:04;;;;;;;6.10;1.98;;;;;;;-2.22;100.00;95900.25;5000284;28;20048;-69
2022/04/02 04:38:30;;;;;;;2.53;1.13;;;;;;;-2.51;100.00;95896.63;4998660;28;20371;-69
2022/04/02 04:41:01;;;;;;;2.80;1.73;;;;;;;-2.44;100.00;95901.97;5015555;28;20871;-70
2022/04/02 04:43:30;;;;;;;2.05;1.05;;;;;;;-2.44;100.00;95912.44;5001069;28;20045;-71
2022/04/02 04:45:57;;;;;;;6.00;1.92;;;;;;;-2.28;100.00;95907.81;5000481;28;20052;-70
2022/04/02 04:48:23;;;;;;;3.13;1.73;;;;;;;-2.32;100.00;95913.63;4999049;28;20061;-70
2022/04/02 04:50:56;;;;;;;4.90;2.13;;;;;;;-2.37;100.00;95908.91;5001532;28;20374;-69
2022/04/02 04:53:23;;;;;;;3.92;1.83;;;;;;;-2.40;100.00;95924.19;4998225;28;20563;-71
2022/04/02 04:55:50;;;;;;;4.50;1.80;;;;;;;-2.48;100.00;95927.72;5000078;28;20033;-70
2022/04/02 04:58:19;;;;;;;2.50;1.40;;;;;;;-2.48;100.00;95927.72;4998041;28;20513;-70
2022/04/02 05:00:46;;;;;;;8.48;2.40;;;;;;;-2.26;100.00;95936.47;4998416;28;20041;-69
2022/04/02 05:03:13;;;;;;;7.35;2.53;;;;;;;-2.30;100.00;95929.97;5014201;28;20111;-69
2022/04/02 05:05:43;;;;;;;3.13;1.50;;;;;;;-2.39;100.00;95936.31;5000054;28;20038;-69
2022/04/02 05:08:13;;;;;;;6.15;2.72;;;;;;;-2.46;100.00;95938.03;4997022;28;20882;-71
2022/04/02 05:10:42;;;;;;;3.97;1.92;;;;;;;-2.35;100.00;95938.38;4998514;28;20037;-71
2022/04/02 05:13:12;;;;;;;3.60;2.00;;;;;;;-2.29;100.00;95940.28;5001249;28;20199;-71
2022/04/02 05:15:40;;;;;;;1.92;1.08;;;;;;;-2.36;100.00;95935.94;5001218;28;20109;-69
2022/04/02 05:18:06;;;;;;;5.90;2.10;;;;;;;-2.43;100.00;95940.28;5006176;28;20527;-69
2022/04/02 05:20:34;;;;;;;10.75;4.35;;;;;;;-2.41;100.00;95938.28;4996901;28;20249;-71
2022/04/02 05:22:59;;;;;;;5.72;3.28;;;;;;;-2.31;100.00;95939.66;4996829;28;20045;-70
2022/04/02 05:25:26;;;;;;;4.60;2.53;;;;;;;-2.24;100.00;95942.38;4999338;28;20041;-70
2022/04/02 05:27:54;;;;;;;6.18;1.90;;;;;;;-2.13;100.00;95936.66;4994332;28;20056;-70
2022/04/02 05:30:20;;;;;;;4.50;1.88;;;;;;;-2.02;100.00;95938.84;4994265;28;20046;-71
2022/04/02 05:32:46;;;;;;;4.72;1.98;;;;;;;-1.94;100.00;95952.84;5000599;28;20078;-70
2022/04/02 05:35:12;;;;;;;4.10;2.00;;;;;;;-1.90;100.00;95952.28;4997882;28;20118;-69
2022/04/02 05:37:46;;;;;;;3.83;1.52;;;;;;;-1.96;100.00;95948.56;4998850;28;20045;-70
2022/04/02 05:40:13;;;;;;;3.75;2.10;;;;;;;-1.77;100.00;95952.44;4997973;28;20755;-70
2022/04/02 05:42:39;;;;;;;3.58;2.03;;;;;;;-1.64;100.00;95950.97;5001390;28;20314;-70
2022/04/02 05:45:05;;;;;;;5.85;2.08;;;;;;;-1.51;100.00;95954.56;4997847;28;20121;-69
2022/04/02 05:48:00;;;;;;;4.53;1.80;;;;;;;-1.35;100.00;95963.19;5000411;28;20034;-70
2022/04/02 05:50:27;;;;;;;3.78;2.03;;;;;;;-1.19;100.00;95976.06;4984141;28;20074;-70
2022/04/02 05:52:53;;;;;;;4.32;2.03;;;;;;;-1.18;100.00;95973.25;4998629;28;20076;-70
2022/04/02 05:55:19;;;;;;;3.53;1.90;;;;;;;-1.06;100.00;95980.66;5000474;28;20038;-70
2022/04/02 05:57:46;;;;;;;4.40;2.00;;;;;;;-1.05;100.00;95974.41;5000663;28;20079;-69
2022/04/02 06:00:15;;;;;;;5.43;1.75;;;;;;;-1.19;100.00;95986.59;4997427;28;20038;-70
2022/04/02 06:02:41;;;;;;;4.85;1.90;;;;;;;-1.26;100.00;95986.50;4997399;28;20401;-70
2022/04/02 06:05:08;;;;;;;5.22;1.63;;;;;;;-1.04;100.00;95989.16;4997499;28;20056;-69
2022/04/02 06:07:34;;;;;;;4.68;1.83;;;;;;;-0.99;100.00;95990.22;4997746;28;20042;-69
2022/04/02 06:10:02;;;;;;;4.72;2.28;;;;;;;-0.93;100.00;95986.84;4998888;28;20061;-69
2022/04/02 06:12:31;;;;;;;3.90;2.03;;;;;;;-1.07;100.00;95989.53;4999636;28;20440;-70
2022/04/02 06:14:57;;;;;;;5.70;1.90;;;;;;;-1.05;100.00;95998.84;4998412;28;20080;-70
2022/04/02 06:17:23;;;;;;;3.25;1.77;;;;;;;-0.85;100.00;95997.25;4995622;28;20049;-70
2022/04/02 06:19:48;;;;;;;3.90;2.10;;;;;;;-0.86;100.00;95992.16;4997581;28;20442;-70
2022/04/02 06:22:14;;;;;;;3.20;1.77;;;;;;;-0.99;100.00;96003.38;4998738;28;20435;-69
2022/04/02 06:24:40;;;;;;;3.70;1.63;;;;;;;-0.88;100.00;96004.66;4996616;28;20046;-70
2022/04/02 06:27:06;;;;;;;4.47;2.00;;;;;;;-0.79;100.00;96015.84;4997922;28;20477;-70
2022/04/02 06:29:31;;;;;;;3.30;1.88;;;;;;;-0.71;100.00;96013.91;4997354;28;20057;-70
2022/04/02 06:31:56;;;;;;;3.35;1.83;;;;;;;-0.97;100.00;96011.06;4994868;28;20056;-69
2022/04/02 06:34:22;;;;;;;3.67;2.00;;;;;;;-0.92;100.00;96011.31;4981189;28;20125;-70
2022/04/02 06:36:48;;;;;;;4.13;2.33;;;;;;;-0.89;100.00;96017.00;4983581;28;20806;-69
2022/04/02 06:39:13;;;;;;;3.75;1.98;;;;;;;-0.69;100.00;96025.06;4997335;28;20049;-70
2022/04/02 06:41:39;;;;;;;2.63;1.50;;;;;;;-0.88;100.00;96023.88;4998470;28;20045;-70
2022/04/02 06:44:08;;;;;;;5.13;1.90;;;;;;;-0.77;100.00;96021.75;4996849;28;20363;-70
2022/04/02 06:46:37;;;;;;;5.57;2.35;;;;;;;-0.61;100.00;96035.44;4999258;28;20049;-70
2022/04/02 06:49:03;;;;;;;2.20;1.38;;;;;;;-0.99;100.00;96031.44;4996464;28;20585;-70
2022/04/02 06:51:29;;;;;;;3.83;2.30;;;;;;;-1.02;100.00;96040.50;4996859;28;20056;-70
2022/04/02 06:53:54;;;;;;;3.53;1.80;;;;;;;-1.03;100.00;96044.13;5002344;28;20463;-69
2022/04/02 06:56:20;;;;;;;3.10;1.70;;;;;;;-1.21;100.00;96043.72;5001801;28;20449;-71
2022/04/02 06:58:46;;;;;;;4.13;2.40;;;;;;;-1.02;100.00;96044.94;4984980;28;20496;-70
2022/04/02 07:01:12;;;;;;;6.65;3.20;;;;;;;-0.83;100.00;96041.72;5001237;28;20046;-70
2022/04/02 07:03:38;;;;;;;6.65;3.30;;;;;;;-0.69;100.00;96040.03;4999249;28;20050;-70
2022/04/02 07:06:03;;;;;;;4.70;2.60;;;;;;;-0.65;100.00;96046.50;5003540;28;20054;-69
2022/04/02 07:08:29;;;;;;;4.18;2.00;;;;;;;-0.46;100.00;96048.53;5003045;28;20025;-70
2022/04/02 07:10:55;;;;;;;8.25;3.83;;;;;;;-0.76;100.00;96042.59;5003561;28;20448;-70
2022/04/02 07:13:20;;;;;;;6.32;2.30;;;;;;;-0.59;100.00;96049.22;5004006;28;20064;-69
2022/04/02 07:15:46;;;;;;;7.60;2.50;;;;;;;-0.41;100.00;96054.00;5002344;28;20100;-71
2022/04/02 07:18:12;;;;;;;4.57;2.25;;;;;;;-0.44;100.00;96057.03;5000629;28;20038;-69
2022/04/02 07:20:39;;;;;;;5.15;3.00;;;;;;;-0.36;100.00;96046.38;4991667;28;20095;-71
2022/04/02 07:23:09;;;;;;;3.80;2.00;;;;;;;-0.11;100.00;96059.91;5001350;28;21051;-70
2022/04/02 07:25:38;;;;;;;3.53;2.00;;;;;;;0.17;100.00;96061.72;5004239;28;20065;-70
2022/04/02 07:28:05;;;;;;;7.25;3.40;;;;;;;0.20;100.00;96059.50;5004012;28;20084;-69
2022/04/02 07:30:33;;;;;;;6.03;2.65;;;;;;;0.54;100.00;96063.13;5000320;28;20045;-71
2022/04/02 07:32:58;;;;;;;5.30;2.40;;;;;;;0.44;100.00;96063.50;5003421;28;20030;-71
2022/04/02 07:35:32;;;;;;;4.05;2.13;;;;;;;0.51;100.00;96058.25;4982635;28;20041;-70
2022/04/02 07:38:01;;;;;;;5.78;3.35;;;;;;;0.52;100.00;96065.97;5001309;28;20038;-70
2022/04/02 07:40:37;;;;;;;2.97;1.70;;;;;;;0.27;100.00;96078.78;4987747;28;20432;-70
2022/04/02 07:43:19;;;;;;;3.50;1.52;;;;;;;0.11;100.00;96065.94;5001019;28;20044;-70
2022/04/02 07:45:48;;;;;;;7.97;2.40;;;;;;;0.58;100.00;96074.91;5001996;28;20073;-69
2022/04/02 07:48:16;;;;;;;5.13;2.45;;;;;;;0.92;100.00;96070.59;5000944;28;20793;-71
2022/04/02 07:50:44;;;;;;;2.90;1.83;;;;;;;0.58;100.00;96076.72;5002228;28;20140;-71
2022/04/02 07:53:20;;;;;;;3.08;1.77;;;;;;;0.07;100.00;96082.28;5000027;28;20076;-70
2022/04/02 07:55:50;;;;;;;5.32;2.50;;;;;;;0.57;100.00;96075.13;5000340;28;20468;-71
2022/04/02 07:58:20;;;;;;;4.68;2.00;;;;;;;0.28;100.00;96071.72;5001536;28;20042;-69
2022/04/02 08:00:53;;;;;;;5.00;2.58;;;;;;;0.74;100.00;96079.84;4998694;28;20604;-69
2022/04/02 08:03:20;;;;;;;3.50;2.08;;;;;;;0.88;100.00;96078.09;5002041;28;20510;-70
2022/04/02 08:05:46;;;;;;;5.00;1.70;;;;;;;0.45;100.00;96090.63;5000070;28;20077;-70
2022/04/02 08:08:13;;;;;;;4.72;2.55;;;;;;;0.39;100.00;96094.88;5001592;28;20403;-69
2022/04/02 08:10:45;;;;;;;3.40;1.55;;;;;;;0.01;100.00;96090.97;4984983;28;20038;-70
2022/04/02 08:13:14;;;;;;;5.20;2.38;;;;;;;0.41;100.00;96100.75;4999905;28;20049;-70
2022/04/02 08:15:41;;;;;;;3.13;1.80;;;;;;;0.35;100.00;96104.16;4991093;28;20045;-70
2022/04/02 08:18:13;;;;;;;3.83;1.55;;;;;;;0.28;100.00;96108.56;4997736;28;20519;-69
2022/04/02 08:20:38;;;;;;;4.30;2.20;;;;;;;0.88;100.00;96096.53;5000569;28;20038;-69
2022/04/02 08:23:04;;;;;;;5.13;2.20;;;;;;;0.92;100.00;96115.38;4968811;28;20065;-70
2022/04/02 08:25:35;;;;;;;3.22;1.63;;;;;;;1.19;100.00;96117.13;4987063;28;20069;-70
2022/04/02 08:28:05;;;;;;;3.25;1.92;;;;;;;0.64;100.00;96113.63;4999312;28;20045;-69
2022/04/02 08:30:55;;;;;;;4.32;2.17;;;;;;;0.90;100.00;96118.22;5001874;28;20129;-71
2022/04/02 08:33:39;;;;;;;2.10;1.33;;;;;;;1.19;100.00;96118.94;4968856;28;20498;-70
2022/04/02 08:36:08;;;;;;;14.23;4.45;;;;;;;1.04;100.00;96127.00;4998526;28;20042;-70
2022/04/02 08:38:42;;;;;;;3.63;1.75;;;;;;;0.89;100.00;96145.56;4999042;28;20054;-70
2022/04/02 08:41:08;;;;;;;6.20;2.85;;;;;;;1.34;100.00;96132.78;4998068;28;20045;-70
2022/04/02 08:43:36;;;;;;;1.98;1.10;;;;;;;1.26;100.00;96132.97;4997356;28;20046;-70
2022/04/02 08:46:32;;;;;;;5.50;2.22;;;;;;;1.54;100.00;96135.44;4998913;28;20037;-71
2022/04/02 08:49:20;;;;;;;5.85;2.75;;;;;;;1.93;100.00;96139.97;5001300;28;20618;-70
2022/04/02 08:51:48;;;;;;;7.22;2.60;;;;;;;2.75;100.00;96138.72;5002667;28;20728;-69
2022/04/02 08:54:24;;;;;;;5.13;2.17;;;;;;;3.36;96.12;96133.00;4998649;28;20074;-70
2022/04/02 08:56:57;;;;;;;4.72;2.63;;;;;;;3.23;93.76;96147.09;5000294;28;20034;-70
2022/04/02 08:59:40;;;;;;;4.55;2.28;;;;;;;3.44;90.20;96145.19;4999174;28;20037;-70
2022/04/02 09:02:21;;;;;;;3.78;1.90;;;;;;;3.08;92.33;96142.06;5000352;28;20130;-70
2022/04/02 09:05:03;;;;;;;4.15;2.30;;;;;;;3.55;93.09;96136.56;4999753;28;20168;-70
2022/04/02 09:08:04;;;;;;;5.07;2.60;;;;;;;4.66;88.19;96150.00;5001084;28;20042;-71
2022/04/02 09:10:52;;;;;;;3.80;1.92;;;;;;;5.06;77.89;96146.13;5000690;28;20034;-71
2022/04/02 09:13:27;;;;;;;3.80;1.95;;;;;;;4.82;84.12;96147.81;4997771;28;20053;-72
2022/04/02 09:15:58;;;;;;;9.18;2.40;;;;;;;4.96;82.94;96150.09;5000503;28;20046;-72
2022/04/02 09:18:37;;;;;;;;;;;;;;;4.60;82.10;96158.03;5000585;28;20053;-70
2022/04/02 09:21:29;;;;;;;6.75;2.10;;;;;;;5.17;83.52;96162.13;5000469;28;20448;-71
2022/04/02 09:24:24;;;;;;;4.72;2.30;;;;;;;5.45;77.16;96158.94;4993382;28;20057;-71
2022/04/02 09:27:26;;;;;;;5.32;2.70;;;;;;;5.30;79.02;96163.81;4932799;28;20058;-70
2022/04/02 09:30:12;;;;;;;6.32;2.53;;;;;;;4.53;80.62;96181.13;4997985;28;20065;-70
2022/04/02 09:32:57;;;;;;;3.95;2.22;;;;;;;4.37;78.90;96179.81;4999035;28;20544;-72
2022/04/02 09:35:23;;;;;;;4.70;2.40;;;;;;;4.08;79.63;96183.91;4996729;28;20038;-70
2022/04/02 09:38:18;;;;;;;5.47;2.67;;;;;;;4.09;84.99;96185.53;5000221;28;20657;-69
2022/04/02 09:40:49;;;;;;;3.95;2.13;;;;;;;4.33;83.88;96184.72;4999618;28;20041;-70
2022/04/02 09:43:27;;;;;;;4.35;1.90;;;;;;;4.67;74.48;96191.41;4995726;28;20132;-70
2022/04/02 09:46:19;;;;;;;6.68;2.40;;;;;;;4.72;79.42;96190.72;4999554;28;20045;-71
2022/04/02 09:48:57;;;;;;;4.47;2.25;;;;;;;4.99;79.91;96192.09;4973849;28;20050;-71
2022/04/02 09:51:31;;;;;;;5.43;1.88;;;;;;;5.16;75.48;96187.03;4997887;28;20866;-71
2022/04/02 09:54:17;;;;;;;4.05;2.00;;;;;;;5.52;78.43;96193.34;5000987;28;20551;-70
2022/04/02 09:56:50;;;;;;;4.65;2.40;;;;;;;5.90;71.88;96195.72;5000546;28;20165;-71
2022/04/02 09:59:23;;;;;;;4.32;2.00;;;;;;;6.46;73.74;96199.03;4997632;28;20088;-70
2022/04/02 10:02:01;;;;;;;3.97;1.80;;;;;;;5.59;63.56;96199.38;4999492;28;20476;-70
2022/04/02 10:04:40;;;;;;;5.00;2.10;;;;;;;5.69;72.05;96198.88;5000419;28;20034;-69
2022/04/02 10:07:20;;;;;;;5.93;2.17;;;;;;;5.44;71.89;96198.94;4999524;28;20038;-71
2022/04/02 10:09:49;;;;;;;3.58;1.73;;;;;;;6.16;71.14;96199.91;4995839;28;20115;-70
2022/04/02 10:12:17;;;;;;;3.80;1.92;;;;;;;5.75;68.63;96213.88;4996227;28;20879;-70
2022/04/02 10:14:45;;;;;;;3.42;1.45;;;;;;;5.30;67.38;96207.09;4998311;28;20041;-71
2022/04/02 10:17:12;;;;;;;3.92;1.95;;;;;;;6.08;66.65;96205.53;4999837;28;20041;-70
2022/04/02 10:19:39;;;;;;;4.88;2.40;;;;;;;5.56;77.21;96207.81;4998803;28;20110;-70
2022/04/02 10:22:10;;;;;;;3.65;1.83;;;;;;;6.06;69.52;96211.03;4972867;28;20053;-70
2022/04/02 10:24:49;;;;;;;6.60;2.00;;;;;;;6.69;61.28;96210.53;4998973;28;20042;-70
2022/04/02 10:27:42;;;;;;;3.88;1.60;;;;;;;4.49;75.01;96217.81;4996265;28;20552;-71
2022/04/02 10:30:13;;;;;;;5.57;1.70;;;;;;;4.74;75.14;96221.28;5000596;28;20092;-71
2022/04/02 10:32:44;;;;;;;4.47;1.92;;;;;;;4.65;78.50;96225.22;5001128;28;20488;-71
2022/04/02 10:35:12;;;;;;;3.40;1.45;;;;;;;4.89;77.30;96214.84;5002496;28;20624;-71
2022/04/02 10:38:08;;;;;;;3.90;1.95;;;;;;;5.83;71.35;96211.72;5003255;28;20659;-69
2022/04/02 10:40:45;;;;;;;6.88;2.50;;;;;;;5.56;73.66;96216.56;4999969;28;20137;-71
2022/04/02 10:43:26;;;;;;;5.55;2.13;;;;;;;5.91;65.82;96209.84;5000605;28;20033;-71
2022/04/02 10:45:53;;;;;;;11.50;2.00;;;;;;;5.46;65.32;96215.47;5000694;28;20042;-71
2022/04/02 10:48:32;;;;;;;9.30;2.22;;;;;;;4.79;74.94;96217.19;4999001;28;20041;-71
2022/04/02 10:51:01;;;;;;;4.07;2.35;;;;;;;4.83;84.39;96228.97;4999445;28;20056;-71
2022/04/02 10:53:30;;;;;;;4.20;2.00;;;;;;;4.99;70.84;96223.94;5002357;28;20103;-70
2022/04/02 10:56:00;;;;;;;6.25;2.00;;;;;;;5.25;74.64;96230.81;5003921;28;20048;-70
2022/04/02 10:58:30;;;;;;;3.65;2.03;;;;;;;6.09;69.26;96223.09;5000137;28;20118;-70
2022/04/02 11:01:00;;;;;;;3.78;1.75;;;;;;;5.84;72.94;96218.69;5000634;28;20038;-70
2022/04/02 11:03:36;;;;;;;9.60;1.90;;;;;;;5.62;69.53;96230.00;5000662;28;20042;-70
2022/04/02 11:06:02;;;;;;;3.85;2.00;;;;;;;4.19;78.63;96231.69;5001210;28;20290;-70
2022/04/02 11:08:31;;;;;;;5.07;2.45;;;;;;;4.94;80.59;96244.16;4998355;28;20034;-69
2022/04/02 11:11:36;;;;;;;2.78;1.50;;;;;;;4.82;70.29;96244.06;5003650;28;20038;-71
2022/04/02 11:14:02;;;;;;;3.95;1.75;;;;;;;5.38;77.21;96242.31;4939050;28;20049;-71
2022/04/02 11:16:40;;;;;;;3.70;1.92;;;;;;;6.31;60.76;96242.00;4987121;28;20048;-70
2022/04/02 11:22:06;;;;;;;4.82;2.28;;;;;;;4.33;72.54;96244.84;4973700;28;20042;-70
2022/04/02 11:24:54;;;;;;;4.78;2.13;;;;;;;3.78;78.82;96249.84;4999419;28;20599;-71
2022/04/02 11:27:24;;;;;;;2.50;1.27;;;;;;;3.48;77.77;96250.34;5002079;28;20050;-70
2022/04/02 11:29:51;;;;;;;3.70;2.20;;;;;;;4.79;79.26;96256.94;5001487;28;20037;-69
2022/04/02 11:32:25;;;;;;;5.60;2.72;;;;;;;7.84;57.67;96243.63;4995762;28;20053;-71
2022/04/02 11:34:52;;;;;;;4.75;2.20;;;;;;;8.68;48.76;96240.38;5001506;28;20057;-69
2022/04/02 11:37:29;;;;;;;4.65;1.88;;;;;;;8.78;48.01;96241.34;5002293;28;20046;-71
2022/04/02 11:40:02;;;;;;;7.38;2.28;;;;;;;9.69;45.35;96231.22;5002893;28;20050;-70
2022/04/02 11:42:33;;;;;;;4.28;2.15;;;;;;;9.45;43.10;96243.19;4998351;28;20085;-70
2022/04/02 11:45:05;;;;;;;7.10;1.92;;;;;;;8.36;46.38;96248.91;5000688;28;20145;-70
2022/04/02 11:47:35;;;;;;;7.13;2.15;;;;;;;7.84;51.69;96248.94;5001284;28;20033;-69
2022/04/02 11:50:06;;;;;;;2.92;1.98;;;;;;;10.53;45.74;96251.44;5001624;28;20041;-69
2022/04/02 11:52:56;;;;;;;9.73;3.55;;;;;;;11.37;40.52;96248.09;5000457;28;20491;-69
2022/04/02 11:55:24;;;;;;;3.85;2.40;;;;;;;11.02;40.34;96257.47;4992736;28;20145;-71
2022/04/02 11:58:02;;;;;;;3.65;1.60;;;;;;;7.57;45.06;96262.00;4999250;28;20037;-69